sensor_id;sensor_type;location;lat;lon;timestamp;P1;durP1;ratioP1;P2;durP2;ratioP2
38783;SDS011;24531;45.502;12.238;2023-11-21T00:00:12;42.10;;;28.67;;
38783;SDS011;24531;45.502;12.238;2023-11-21T00:02:39;41.92;;;29.42;;
38783;SDS011;24531;45.502;12.238;2023-11-21T00:05:07;40.35;;;27.85;;
38783;SDS011;24531;45.502;12.238;2023-11-21T00:07:34;44.28;;;28.25;;
38783;SDS011;24531;45.502;12.238;2023-11-21T00:10:01;43.28;;;28.83;;
38783;SDS011;24531;45.502;12.238;2023-11-21T00:12:27;41.63;;;28.10;;
38783;SDS011;24531;45.502;12.238;2023-11-21T00:14:54;42.10;;;28.15;;
38783;SDS011;24531;45.502;12.238;2023-11-21T00:17:20;38.53;;;27.50;;
38783;SDS011;24531;45.502;12.238;2023-11-21T00:19:45;41.35;;;28.92;;
38783;SDS011;24531;45.502;12.238;2023-11-21T00:22:11;42.80;;;28.58;;
38783;SDS011;24531;45.502;12.238;2023-11-21T00:24:37;41.65;;;27.55;;
38783;SDS011;24531;45.502;12.238;2023-11-21T00:27:02;43.50;;;28.27;;
38783;SDS011;24531;45.502;12.238;2023-11-21T00:29:28;44.08;;;28.85;;
38783;SDS011;24531;45.502;12.238;2023-11-21T00:31:54;41.85;;;28.70;;
38783;SDS011;24531;45.502;12.238;2023-11-21T00:34:20;43.80;;;28.95;;
38783;SDS011;24531;45.502;12.238;2023-11-21T00:36:45;38.13;;;28.58;;
38783;SDS011;24531;45.502;12.238;2023-11-21T00:39:11;42.95;;;28.20;;
38783;SDS011;24531;45.502;12.238;2023-11-21T00:41:37;41.00;;;27.80;;
38783;SDS011;24531;45.502;12.238;2023-11-21T00:44:04;41.60;;;26.88;;
38783;SDS011;24531;45.502;12.238;2023-11-21T00:46:31;39.13;;;27.15;;
38783;SDS011;24531;45.502;12.238;2023-11-21T00:48:57;44.58;;;28.08;;
38783;SDS011;24531;45.502;12.238;2023-11-21T00:51:22;42.08;;;27.80;;
38783;SDS011;24531;45.502;12.238;2023-11-21T00:53:49;39.42;;;27.55;;
38783;SDS011;24531;45.502;12.238;2023-11-21T00:56:15;43.53;;;28.92;;
38783;SDS011;24531;45.502;12.238;2023-11-21T00:58:41;47.03;;;29.92;;
38783;SDS011;24531;45.502;12.238;2023-11-21T01:01:14;42.95;;;28.08;;
38783;SDS011;24531;45.502;12.238;2023-11-21T01:03:40;46.25;;;30.15;;
38783;SDS011;24531;45.502;12.238;2023-11-21T01:06:05;41.03;;;28.17;;
38783;SDS011;24531;45.502;12.238;2023-11-21T01:08:32;41.63;;;28.95;;
38783;SDS011;24531;45.502;12.238;2023-11-21T01:10:57;41.10;;;28.70;;
38783;SDS011;24531;45.502;12.238;2023-11-21T01:13:23;45.42;;;28.98;;
38783;SDS011;24531;45.502;12.238;2023-11-21T01:15:49;42.28;;;28.35;;
38783;SDS011;24531;45.502;12.238;2023-11-21T01:18:14;45.03;;;28.88;;
38783;SDS011;24531;45.502;12.238;2023-11-21T01:20:40;44.13;;;30.25;;
38783;SDS011;24531;45.502;12.238;2023-11-21T01:23:05;46.97;;;31.08;;
38783;SDS011;24531;45.502;12.238;2023-11-21T01:25:31;46.08;;;31.38;;
38783;SDS011;24531;45.502;12.238;2023-11-21T01:27:56;44.75;;;30.83;;
38783;SDS011;24531;45.502;12.238;2023-11-21T01:30:22;46.25;;;29.65;;
38783;SDS011;24531;45.502;12.238;2023-11-21T01:32:48;45.63;;;31.13;;
38783;SDS011;24531;45.502;12.238;2023-11-21T01:35:13;49.55;;;32.97;;
38783;SDS011;24531;45.502;12.238;2023-11-21T01:37:39;45.50;;;30.67;;
38783;SDS011;24531;45.502;12.238;2023-11-21T01:40:05;45.58;;;31.90;;
38783;SDS011;24531;45.502;12.238;2023-11-21T01:42:38;49.50;;;32.08;;
38783;SDS011;24531;45.502;12.238;2023-11-21T01:45:05;49.83;;;32.90;;
38783;SDS011;24531;45.502;12.238;2023-11-21T01:47:32;52.03;;;33.72;;
38783;SDS011;24531;45.502;12.238;2023-11-21T01:49:58;48.25;;;33.13;;
38783;SDS011;24531;45.502;12.238;2023-11-21T01:52:24;49.72;;;34.92;;
38783;SDS011;24531;45.502;12.238;2023-11-21T01:54:50;48.15;;;34.25;;
38783;SDS011;24531;45.502;12.238;2023-11-21T01:57:18;54.42;;;34.47;;
38783;SDS011;24531;45.502;12.238;2023-11-21T01:59:45;45.67;;;32.22;;
38783;SDS011;24531;45.502;12.238;2023-11-21T02:02:14;50.30;;;34.13;;
38783;SDS011;24531;45.502;12.238;2023-11-21T02:04:40;47.00;;;31.98;;
38783;SDS011;24531;45.502;12.238;2023-11-21T02:07:06;48.83;;;33.10;;
38783;SDS011;24531;45.502;12.238;2023-11-21T02:09:32;52.40;;;34.30;;
38783;SDS011;24531;45.502;12.238;2023-11-21T02:12:03;47.58;;;32.00;;
38783;SDS011;24531;45.502;12.238;2023-11-21T02:14:30;50.63;;;32.22;;
38783;SDS011;24531;45.502;12.238;2023-11-21T02:16:56;48.95;;;32.85;;
38783;SDS011;24531;45.502;12.238;2023-11-21T02:19:26;47.97;;;32.65;;
38783;SDS011;24531;45.502;12.238;2023-11-21T02:21:52;46.72;;;31.20;;
38783;SDS011;24531;45.502;12.238;2023-11-21T02:24:19;46.22;;;31.23;;
38783;SDS011;24531;45.502;12.238;2023-11-21T02:26:45;45.65;;;31.48;;
38783;SDS011;24531;45.502;12.238;2023-11-21T02:29:11;54.60;;;33.60;;
38783;SDS011;24531;45.502;12.238;2023-11-21T02:31:38;42.65;;;31.83;;
38783;SDS011;24531;45.502;12.238;2023-11-21T02:34:13;46.20;;;30.65;;
38783;SDS011;24531;45.502;12.238;2023-11-21T02:36:43;46.00;;;31.38;;
38783;SDS011;24531;45.502;12.238;2023-11-21T02:39:09;43.65;;;28.58;;
38783;SDS011;24531;45.502;12.238;2023-11-21T02:41:36;44.22;;;29.17;;
38783;SDS011;24531;45.502;12.238;2023-11-21T02:44:03;45.78;;;29.38;;
38783;SDS011;24531;45.502;12.238;2023-11-21T02:46:31;47.13;;;30.30;;
38783;SDS011;24531;45.502;12.238;2023-11-21T02:48:57;41.05;;;28.73;;
38783;SDS011;24531;45.502;12.238;2023-11-21T02:51:23;47.55;;;29.35;;
38783;SDS011;24531;45.502;12.238;2023-11-21T02:53:49;43.33;;;27.77;;
38783;SDS011;24531;45.502;12.238;2023-11-21T02:56:16;35.97;;;26.20;;
38783;SDS011;24531;45.502;12.238;2023-11-21T02:58:43;38.45;;;27.60;;
38783;SDS011;24531;45.502;12.238;2023-11-21T03:01:09;37.63;;;26.70;;
38783;SDS011;24531;45.502;12.238;2023-11-21T03:03:36;41.97;;;26.83;;
38783;SDS011;24531;45.502;12.238;2023-11-21T03:06:05;38.78;;;26.45;;
38783;SDS011;24531;45.502;12.238;2023-11-21T03:08:31;38.47;;;25.55;;
38783;SDS011;24531;45.502;12.238;2023-11-21T03:10:57;37.53;;;25.90;;
38783;SDS011;24531;45.502;12.238;2023-11-21T03:13:23;32.95;;;25.30;;
38783;SDS011;24531;45.502;12.238;2023-11-21T03:15:48;39.10;;;24.75;;
38783;SDS011;24531;45.502;12.238;2023-11-21T03:18:14;34.40;;;23.02;;
38783;SDS011;24531;45.502;12.238;2023-11-21T03:20:40;33.72;;;23.83;;
38783;SDS011;24531;45.502;12.238;2023-11-21T03:23:06;34.90;;;24.52;;
38783;SDS011;24531;45.502;12.238;2023-11-21T03:25:32;35.42;;;24.77;;
38783;SDS011;24531;45.502;12.238;2023-11-21T03:27:57;37.08;;;24.75;;
38783;SDS011;24531;45.502;12.238;2023-11-21T03:30:23;31.88;;;23.63;;
38783;SDS011;24531;45.502;12.238;2023-11-21T03:32:49;34.08;;;24.02;;
38783;SDS011;24531;45.502;12.238;2023-11-21T03:35:14;31.55;;;23.02;;
38783;SDS011;24531;45.502;12.238;2023-11-21T03:37:40;33.95;;;23.27;;
38783;SDS011;24531;45.502;12.238;2023-11-21T03:40:07;34.83;;;23.42;;
38783;SDS011;24531;45.502;12.238;2023-11-21T03:42:37;38.05;;;24.67;;
38783;SDS011;24531;45.502;12.238;2023-11-21T03:45:04;35.00;;;22.98;;
38783;SDS011;24531;45.502;12.238;2023-11-21T03:47:30;35.95;;;24.10;;
38783;SDS011;24531;45.502;12.238;2023-11-21T03:49:55;30.17;;;22.45;;
38783;SDS011;24531;45.502;12.238;2023-11-21T03:52:21;32.08;;;22.77;;
38783;SDS011;24531;45.502;12.238;2023-11-21T03:54:46;32.72;;;22.40;;
38783;SDS011;24531;45.502;12.238;2023-11-21T03:57:12;34.45;;;23.02;;
38783;SDS011;24531;45.502;12.238;2023-11-21T03:59:41;35.00;;;24.52;;
38783;SDS011;24531;45.502;12.238;2023-11-21T04:02:07;31.05;;;22.80;;
38783;SDS011;24531;45.502;12.238;2023-11-21T04:04:33;34.50;;;23.63;;
38783;SDS011;24531;45.502;12.238;2023-11-21T04:06:59;35.40;;;23.00;;
38783;SDS011;24531;45.502;12.238;2023-11-21T04:09:25;33.35;;;22.02;;
38783;SDS011;24531;45.502;12.238;2023-11-21T04:11:51;33.25;;;22.42;;
38783;SDS011;24531;45.502;12.238;2023-11-21T04:14:17;34.55;;;23.60;;
38783;SDS011;24531;45.502;12.238;2023-11-21T04:16:43;30.85;;;21.65;;
38783;SDS011;24531;45.502;12.238;2023-11-21T04:19:08;31.60;;;22.77;;
38783;SDS011;24531;45.502;12.238;2023-11-21T04:21:39;29.00;;;21.23;;
38783;SDS011;24531;45.502;12.238;2023-11-21T04:24:06;31.45;;;21.48;;
38783;SDS011;24531;45.502;12.238;2023-11-21T04:26:31;30.83;;;22.45;;
38783;SDS011;24531;45.502;12.238;2023-11-21T04:28:57;31.80;;;22.20;;
38783;SDS011;24531;45.502;12.238;2023-11-21T04:31:23;29.73;;;21.67;;
38783;SDS011;24531;45.502;12.238;2023-11-21T04:33:48;33.95;;;22.13;;
38783;SDS011;24531;45.502;12.238;2023-11-21T04:36:14;31.00;;;21.65;;
38783;SDS011;24531;45.502;12.238;2023-11-21T04:38:40;30.70;;;21.45;;
38783;SDS011;24531;45.502;12.238;2023-11-21T04:41:06;33.75;;;21.05;;
38783;SDS011;24531;45.502;12.238;2023-11-21T04:43:31;31.10;;;21.67;;
38783;SDS011;24531;45.502;12.238;2023-11-21T04:45:57;34.63;;;22.08;;
38783;SDS011;24531;45.502;12.238;2023-11-21T04:48:22;28.75;;;20.85;;
38783;SDS011;24531;45.502;12.238;2023-11-21T04:50:48;29.63;;;20.70;;
38783;SDS011;24531;45.502;12.238;2023-11-21T04:53:14;28.30;;;19.38;;
38783;SDS011;24531;45.502;12.238;2023-11-21T04:55:40;32.05;;;22.13;;
38783;SDS011;24531;45.502;12.238;2023-11-21T04:58:06;28.83;;;20.63;;
38783;SDS011;24531;45.502;12.238;2023-11-21T05:00:33;27.98;;;20.13;;
38783;SDS011;24531;45.502;12.238;2023-11-21T05:02:58;26.85;;;20.08;;
38783;SDS011;24531;45.502;12.238;2023-11-21T05:05:26;27.70;;;19.35;;
38783;SDS011;24531;45.502;12.238;2023-11-21T05:07:51;30.17;;;21.35;;
38783;SDS011;24531;45.502;12.238;2023-11-21T05:10:18;29.23;;;19.67;;
38783;SDS011;24531;45.502;12.238;2023-11-21T05:12:44;28.10;;;19.40;;
38783;SDS011;24531;45.502;12.238;2023-11-21T05:15:13;25.73;;;18.85;;
38783;SDS011;24531;45.502;12.238;2023-11-21T05:17:39;28.55;;;19.40;;
38783;SDS011;24531;45.502;12.238;2023-11-21T05:20:15;30.33;;;19.98;;
38783;SDS011;24531;45.502;12.238;2023-11-21T05:22:46;27.33;;;19.55;;
38783;SDS011;24531;45.502;12.238;2023-11-21T05:25:13;28.58;;;19.60;;
38783;SDS011;24531;45.502;12.238;2023-11-21T05:27:39;28.10;;;20.58;;
38783;SDS011;24531;45.502;12.238;2023-11-21T05:30:05;28.23;;;20.15;;
38783;SDS011;24531;45.502;12.238;2023-11-21T05:32:31;31.33;;;22.58;;
38783;SDS011;24531;45.502;12.238;2023-11-21T05:35:00;34.28;;;22.85;;
38783;SDS011;24531;45.502;12.238;2023-11-21T05:37:26;35.38;;;22.65;;
38783;SDS011;24531;45.502;12.238;2023-11-21T05:39:52;33.00;;;21.25;;
38783;SDS011;24531;45.502;12.238;2023-11-21T05:42:19;27.92;;;19.25;;
38783;SDS011;24531;45.502;12.238;2023-11-21T05:44:45;29.98;;;20.50;;
38783;SDS011;24531;45.502;12.238;2023-11-21T05:47:11;70.18;;;39.78;;
38783;SDS011;24531;45.502;12.238;2023-11-21T05:49:38;45.10;;;27.08;;
38783;SDS011;24531;45.502;12.238;2023-11-21T05:52:04;36.72;;;22.17;;
38783;SDS011;24531;45.502;12.238;2023-11-21T05:54:30;31.67;;;20.88;;
38783;SDS011;24531;45.502;12.238;2023-11-21T05:56:56;32.63;;;21.92;;
38783;SDS011;24531;45.502;12.238;2023-11-21T05:59:22;42.90;;;26.27;;
38783;SDS011;24531;45.502;12.238;2023-11-21T06:01:48;41.95;;;26.02;;
38783;SDS011;24531;45.502;12.238;2023-11-21T06:04:13;41.80;;;26.55;;
38783;SDS011;24531;45.502;12.238;2023-11-21T06:06:39;42.17;;;25.38;;
38783;SDS011;24531;45.502;12.238;2023-11-21T06:09:05;35.50;;;24.40;;
38783;SDS011;24531;45.502;12.238;2023-11-21T06:11:34;35.90;;;23.30;;
38783;SDS011;24531;45.502;12.238;2023-11-21T06:14:00;37.70;;;24.15;;
38783;SDS011;24531;45.502;12.238;2023-11-21T06:16:26;38.97;;;24.30;;
38783;SDS011;24531;45.502;12.238;2023-11-21T06:18:52;37.38;;;21.63;;
38783;SDS011;24531;45.502;12.238;2023-11-21T06:21:18;37.05;;;23.50;;
38783;SDS011;24531;45.502;12.238;2023-11-21T06:23:44;35.42;;;22.02;;
38783;SDS011;24531;45.502;12.238;2023-11-21T06:26:09;31.02;;;21.58;;
38783;SDS011;24531;45.502;12.238;2023-11-21T06:28:35;29.55;;;22.08;;
38783;SDS011;24531;45.502;12.238;2023-11-21T06:31:01;29.15;;;20.67;;
38783;SDS011;24531;45.502;12.238;2023-11-21T06:33:33;34.33;;;22.83;;
38783;SDS011;24531;45.502;12.238;2023-11-21T06:35:59;34.35;;;23.35;;
38783;SDS011;24531;45.502;12.238;2023-11-21T06:38:28;37.92;;;21.33;;
38783;SDS011;24531;45.502;12.238;2023-11-21T06:40:55;32.70;;;21.67;;
38783;SDS011;24531;45.502;12.238;2023-11-21T06:43:21;34.10;;;22.88;;
38783;SDS011;24531;45.502;12.238;2023-11-21T06:45:47;38.90;;;22.52;;
38783;SDS011;24531;45.502;12.238;2023-11-21T06:48:13;31.40;;;22.65;;
38783;SDS011;24531;45.502;12.238;2023-11-21T06:50:39;35.30;;;23.83;;
38783;SDS011;24531;45.502;12.238;2023-11-21T06:53:05;34.17;;;23.48;;
38783;SDS011;24531;45.502;12.238;2023-11-21T06:55:32;33.35;;;22.80;;
38783;SDS011;24531;45.502;12.238;2023-11-21T06:57:58;31.55;;;23.08;;
38783;SDS011;24531;45.502;12.238;2023-11-21T07:00:25;40.83;;;26.23;;
38783;SDS011;24531;45.502;12.238;2023-11-21T07:02:53;37.78;;;26.50;;
38783;SDS011;24531;45.502;12.238;2023-11-21T07:05:20;39.03;;;25.85;;
38783;SDS011;24531;45.502;12.238;2023-11-21T07:07:46;36.75;;;24.65;;
38783;SDS011;24531;45.502;12.238;2023-11-21T07:10:13;37.03;;;24.58;;
38783;SDS011;24531;45.502;12.238;2023-11-21T07:12:39;37.00;;;24.70;;
38783;SDS011;24531;45.502;12.238;2023-11-21T07:15:05;36.78;;;24.02;;
38783;SDS011;24531;45.502;12.238;2023-11-21T07:17:34;41.38;;;24.45;;
38783;SDS011;24531;45.502;12.238;2023-11-21T07:20:02;40.53;;;25.48;;
38783;SDS011;24531;45.502;12.238;2023-11-21T07:22:28;38.55;;;24.70;;
38783;SDS011;24531;45.502;12.238;2023-11-21T07:24:55;35.28;;;23.35;;
38783;SDS011;24531;45.502;12.238;2023-11-21T07:27:21;38.75;;;24.77;;
38783;SDS011;24531;45.502;12.238;2023-11-21T07:29:47;32.83;;;23.33;;
38783;SDS011;24531;45.502;12.238;2023-11-21T07:32:13;34.53;;;23.08;;
38783;SDS011;24531;45.502;12.238;2023-11-21T07:34:39;31.92;;;22.88;;
38783;SDS011;24531;45.502;12.238;2023-11-21T07:37:06;33.58;;;22.73;;
38783;SDS011;24531;45.502;12.238;2023-11-21T07:39:33;33.72;;;21.85;;
38783;SDS011;24531;45.502;12.238;2023-11-21T07:42:00;57.53;;;30.33;;
38783;SDS011;24531;45.502;12.238;2023-11-21T07:44:27;71.32;;;36.40;;
38783;SDS011;24531;45.502;12.238;2023-11-21T07:46:53;47.08;;;28.40;;
38783;SDS011;24531;45.502;12.238;2023-11-21T07:49:22;47.17;;;26.35;;
38783;SDS011;24531;45.502;12.238;2023-11-21T07:51:51;51.38;;;31.77;;
38783;SDS011;24531;45.502;12.238;2023-11-21T07:54:17;41.13;;;24.98;;
38783;SDS011;24531;45.502;12.238;2023-11-21T07:56:43;37.00;;;24.02;;
38783;SDS011;24531;45.502;12.238;2023-11-21T07:59:09;36.08;;;24.15;;
38783;SDS011;24531;45.502;12.238;2023-11-21T08:01:34;34.03;;;22.55;;
38783;SDS011;24531;45.502;12.238;2023-11-21T08:04:00;34.58;;;21.88;;
38783;SDS011;24531;45.502;12.238;2023-11-21T08:06:29;32.08;;;21.80;;
38783;SDS011;24531;45.502;12.238;2023-11-21T08:08:55;31.95;;;20.88;;
38783;SDS011;24531;45.502;12.238;2023-11-21T08:11:21;32.03;;;21.00;;
38783;SDS011;24531;45.502;12.238;2023-11-21T08:13:47;30.20;;;22.70;;
38783;SDS011;24531;45.502;12.238;2023-11-21T08:16:13;30.15;;;21.13;;
38783;SDS011;24531;45.502;12.238;2023-11-21T08:18:39;30.50;;;21.90;;
38783;SDS011;24531;45.502;12.238;2023-11-21T08:21:06;32.13;;;23.00;;
38783;SDS011;24531;45.502;12.238;2023-11-21T08:23:32;30.42;;;20.98;;
38783;SDS011;24531;45.502;12.238;2023-11-21T08:25:59;34.63;;;21.75;;
38783;SDS011;24531;45.502;12.238;2023-11-21T08:28:25;33.78;;;20.58;;
38783;SDS011;24531;45.502;12.238;2023-11-21T08:30:53;31.42;;;21.98;;
38783;SDS011;24531;45.502;12.238;2023-11-21T08:33:21;36.50;;;22.13;;
38783;SDS011;24531;45.502;12.238;2023-11-21T08:35:47;31.00;;;21.60;;
38783;SDS011;24531;45.502;12.238;2023-11-21T08:38:13;30.58;;;21.02;;
38783;SDS011;24531;45.502;12.238;2023-11-21T08:40:39;26.77;;;20.60;;
38783;SDS011;24531;45.502;12.238;2023-11-21T08:43:05;30.77;;;20.67;;
38783;SDS011;24531;45.502;12.238;2023-11-21T08:45:30;29.33;;;21.00;;
38783;SDS011;24531;45.502;12.238;2023-11-21T08:47:57;29.38;;;19.27;;
38783;SDS011;24531;45.502;12.238;2023-11-21T08:50:23;28.60;;;19.40;;
38783;SDS011;24531;45.502;12.238;2023-11-21T08:52:49;29.58;;;19.77;;
38783;SDS011;24531;45.502;12.238;2023-11-21T08:55:14;36.33;;;23.90;;
38783;SDS011;24531;45.502;12.238;2023-11-21T08:57:41;29.40;;;20.13;;
38783;SDS011;24531;45.502;12.238;2023-11-21T09:00:08;28.73;;;19.33;;
38783;SDS011;24531;45.502;12.238;2023-11-21T09:02:37;27.80;;;18.95;;
38783;SDS011;24531;45.502;12.238;2023-11-21T09:05:07;26.45;;;16.95;;
38783;SDS011;24531;45.502;12.238;2023-11-21T09:07:34;25.10;;;18.52;;
38783;SDS011;24531;45.502;12.238;2023-11-21T09:10:00;27.02;;;17.88;;
38783;SDS011;24531;45.502;12.238;2023-11-21T09:12:26;25.98;;;18.02;;
38783;SDS011;24531;45.502;12.238;2023-11-21T09:14:52;25.38;;;18.20;;
38783;SDS011;24531;45.502;12.238;2023-11-21T09:17:17;25.23;;;18.77;;
38783;SDS011;24531;45.502;12.238;2023-11-21T09:19:43;27.63;;;19.77;;
38783;SDS011;24531;45.502;12.238;2023-11-21T09:22:12;25.80;;;17.45;;
38783;SDS011;24531;45.502;12.238;2023-11-21T09:24:37;27.00;;;19.48;;
38783;SDS011;24531;45.502;12.238;2023-11-21T09:27:03;27.55;;;17.63;;
38783;SDS011;24531;45.502;12.238;2023-11-21T09:29:30;22.42;;;16.42;;
38783;SDS011;24531;45.502;12.238;2023-11-21T09:31:57;22.17;;;16.65;;
38783;SDS011;24531;45.502;12.238;2023-11-21T09:34:24;25.15;;;16.17;;
38783;SDS011;24531;45.502;12.238;2023-11-21T09:36:51;28.33;;;16.23;;
38783;SDS011;24531;45.502;12.238;2023-11-21T09:39:17;24.13;;;15.00;;
38783;SDS011;24531;45.502;12.238;2023-11-21T09:41:49;26.40;;;15.73;;
38783;SDS011;24531;45.502;12.238;2023-11-21T09:44:20;28.33;;;16.83;;
38783;SDS011;24531;45.502;12.238;2023-11-21T09:47:00;33.83;;;22.98;;
38783;SDS011;24531;45.502;12.238;2023-11-21T09:49:31;55.17;;;32.45;;
38783;SDS011;24531;45.502;12.238;2023-11-21T09:52:00;36.72;;;21.05;;
38783;SDS011;24531;45.502;12.238;2023-11-21T09:54:28;38.08;;;23.77;;
38783;SDS011;24531;45.502;12.238;2023-11-21T09:56:56;53.83;;;32.55;;
38783;SDS011;24531;45.502;12.238;2023-11-21T09:59:24;62.42;;;38.40;;
38783;SDS011;24531;45.502;12.238;2023-11-21T10:02:00;70.30;;;36.15;;
38783;SDS011;24531;45.502;12.238;2023-11-21T10:04:27;54.85;;;29.10;;
38783;SDS011;24531;45.502;12.238;2023-11-21T10:06:53;52.72;;;31.15;;
38783;SDS011;24531;45.502;12.238;2023-11-21T10:09:19;31.42;;;18.73;;
38783;SDS011;24531;45.502;12.238;2023-11-21T10:11:46;30.75;;;19.45;;
38783;SDS011;24531;45.502;12.238;2023-11-21T10:14:14;36.80;;;25.38;;
38783;SDS011;24531;45.502;12.238;2023-11-21T10:16:43;30.65;;;22.05;;
38783;SDS011;24531;45.502;12.238;2023-11-21T10:19:12;35.50;;;21.10;;
38783;SDS011;24531;45.502;12.238;2023-11-21T10:21:41;30.08;;;19.65;;
38783;SDS011;24531;45.502;12.238;2023-11-21T10:24:07;34.70;;;20.40;;
38783;SDS011;24531;45.502;12.238;2023-11-21T10:26:33;31.77;;;20.83;;
38783;SDS011;24531;45.502;12.238;2023-11-21T10:29:01;30.58;;;21.83;;
38783;SDS011;24531;45.502;12.238;2023-11-21T10:31:31;33.35;;;22.13;;
38783;SDS011;24531;45.502;12.238;2023-11-21T10:34:11;32.17;;;21.35;;
38783;SDS011;24531;45.502;12.238;2023-11-21T10:36:41;32.88;;;21.38;;
38783;SDS011;24531;45.502;12.238;2023-11-21T10:39:07;26.63;;;19.95;;
38783;SDS011;24531;45.502;12.238;2023-11-21T10:41:35;23.75;;;17.40;;
38783;SDS011;24531;45.502;12.238;2023-11-21T10:44:01;30.90;;;19.85;;
38783;SDS011;24531;45.502;12.238;2023-11-21T10:46:31;23.38;;;15.85;;
38783;SDS011;24531;45.502;12.238;2023-11-21T10:48:57;22.35;;;13.88;;
38783;SDS011;24531;45.502;12.238;2023-11-21T10:51:22;20.75;;;12.23;;
38783;SDS011;24531;45.502;12.238;2023-11-21T10:53:51;9.45;;;6.97;;
38783;SDS011;24531;45.502;12.238;2023-11-21T10:56:18;9.55;;;5.68;;
38783;SDS011;24531;45.502;12.238;2023-11-21T10:58:46;5.90;;;3.88;;
38783;SDS011;24531;45.502;12.238;2023-11-21T11:01:19;6.00;;;3.28;;
38783;SDS011;24531;45.502;12.238;2023-11-21T11:03:49;3.72;;;2.42;;
38783;SDS011;24531;45.502;12.238;2023-11-21T11:06:19;4.28;;;2.60;;
38783;SDS011;24531;45.502;12.238;2023-11-21T11:08:46;2.92;;;1.92;;
38783;SDS011;24531;45.502;12.238;2023-11-21T11:11:13;2.75;;;2.10;;
38783;SDS011;24531;45.502;12.238;2023-11-21T11:13:39;2.50;;;1.77;;
38783;SDS011;24531;45.502;12.238;2023-11-21T11:16:09;2.80;;;1.90;;
38783;SDS011;24531;45.502;12.238;2023-11-21T11:18:37;2.97;;;1.55;;
38783;SDS011;24531;45.502;12.238;2023-11-21T11:26:37;2.53;;;1.70;;
38783;SDS011;24531;45.502;12.238;2023-11-21T11:31:45;3.03;;;1.77;;
38783;SDS011;24531;45.502;12.238;2023-11-21T11:34:30;1.77;;;1.17;;
38783;SDS011;24531;45.502;12.238;2023-11-21T11:39:36;1.65;;;1.27;;
38783;SDS011;24531;45.502;12.238;2023-11-21T11:42:03;2.50;;;1.35;;
38783;SDS011;24531;45.502;12.238;2023-11-21T11:47:14;1.40;;;1.00;;
38783;SDS011;24531;45.502;12.238;2023-11-21T11:49:56;1.85;;;1.27;;
38783;SDS011;24531;45.502;12.238;2023-11-21T11:55:12;1.38;;;1.15;;
38783;SDS011;24531;45.502;12.238;2023-11-21T11:57:39;1.85;;;1.13;;
38783;SDS011;24531;45.502;12.238;2023-11-21T12:02:41;1.35;;;0.90;;
38783;SDS011;24531;45.502;12.238;2023-11-21T12:05:10;1.27;;;1.05;;
38783;SDS011;24531;45.502;12.238;2023-11-21T12:07:54;2.38;;;1.15;;
38783;SDS011;24531;45.502;12.238;2023-11-21T12:10:25;1.45;;;0.88;;
38783;SDS011;24531;45.502;12.238;2023-11-21T12:15:20;1.65;;;1.00;;
38783;SDS011;24531;45.502;12.238;2023-11-21T12:17:47;1.42;;;1.10;;
38783;SDS011;24531;45.502;12.238;2023-11-21T12:20:20;1.90;;;1.40;;
38783;SDS011;24531;45.502;12.238;2023-11-21T12:22:48;2.20;;;1.20;;
38783;SDS011;24531;45.502;12.238;2023-11-21T12:25:18;1.58;;;0.82;;
38783;SDS011;24531;45.502;12.238;2023-11-21T12:27:48;1.98;;;1.27;;
38783;SDS011;24531;45.502;12.238;2023-11-21T12:30:16;0.98;;;0.90;;
38783;SDS011;24531;45.502;12.238;2023-11-21T12:32:43;1.52;;;1.20;;
38783;SDS011;24531;45.502;12.238;2023-11-21T12:35:12;1.52;;;1.00;;
38783;SDS011;24531;45.502;12.238;2023-11-21T12:37:39;2.38;;;0.90;;
38783;SDS011;24531;45.502;12.238;2023-11-21T12:40:06;1.27;;;0.93;;
38783;SDS011;24531;45.502;12.238;2023-11-21T12:42:33;3.67;;;1.00;;
38783;SDS011;24531;45.502;12.238;2023-11-21T12:45:08;2.45;;;1.10;;
38783;SDS011;24531;45.502;12.238;2023-11-21T12:47:41;3.47;;;1.02;;
38783;SDS011;24531;45.502;12.238;2023-11-21T12:50:08;1.05;;;0.95;;
38783;SDS011;24531;45.502;12.238;2023-11-21T12:52:41;2.50;;;1.02;;
38783;SDS011;24531;45.502;12.238;2023-11-21T12:57:53;2.10;;;1.40;;
38783;SDS011;24531;45.502;12.238;2023-11-21T13:02:55;1.75;;;1.33;;
38783;SDS011;24531;45.502;12.238;2023-11-21T13:05:26;1.42;;;1.20;;
38783;SDS011;24531;45.502;12.238;2023-11-21T13:07:56;2.95;;;1.30;;
38783;SDS011;24531;45.502;12.238;2023-11-21T13:10:26;1.98;;;0.95;;
38783;SDS011;24531;45.502;12.238;2023-11-21T13:12:58;2.00;;;1.05;;
38783;SDS011;24531;45.502;12.238;2023-11-21T13:15:26;1.42;;;1.20;;
38783;SDS011;24531;45.502;12.238;2023-11-21T13:17:52;1.75;;;1.35;;
38783;SDS011;24531;45.502;12.238;2023-11-21T13:20:19;1.40;;;1.00;;
38783;SDS011;24531;45.502;12.238;2023-11-21T13:22:49;2.47;;;1.08;;
38783;SDS011;24531;45.502;12.238;2023-11-21T13:25:16;2.42;;;1.70;;
38783;SDS011;24531;45.502;12.238;2023-11-21T13:27:45;2.17;;;1.60;;
38783;SDS011;24531;45.502;12.238;2023-11-21T13:30:11;2.58;;;1.65;;
38783;SDS011;24531;45.502;12.238;2023-11-21T13:32:42;2.30;;;1.70;;
38783;SDS011;24531;45.502;12.238;2023-11-21T13:35:16;2.33;;;1.30;;
38783;SDS011;24531;45.502;12.238;2023-11-21T13:37:52;3.00;;;1.42;;
38783;SDS011;24531;45.502;12.238;2023-11-21T13:40:21;4.53;;;1.40;;
38783;SDS011;24531;45.502;12.238;2023-11-21T13:42:50;2.08;;;1.40;;
38783;SDS011;24531;45.502;12.238;2023-11-21T13:45:20;2.55;;;1.17;;
38783;SDS011;24531;45.502;12.238;2023-11-21T13:47:48;2.65;;;1.50;;
38783;SDS011;24531;45.502;12.238;2023-11-21T13:50:16;4.53;;;1.48;;
38783;SDS011;24531;45.502;12.238;2023-11-21T13:52:47;2.25;;;1.35;;
38783;SDS011;24531;45.502;12.238;2023-11-21T13:55:14;2.58;;;1.40;;
38783;SDS011;24531;45.502;12.238;2023-11-21T13:57:44;5.00;;;1.80;;
38783;SDS011;24531;45.502;12.238;2023-11-21T14:00:12;4.13;;;1.90;;
38783;SDS011;24531;45.502;12.238;2023-11-21T14:02:57;3.92;;;1.90;;
38783;SDS011;24531;45.502;12.238;2023-11-21T14:05:26;4.68;;;1.80;;
38783;SDS011;24531;45.502;12.238;2023-11-21T14:07:56;2.65;;;1.38;;
38783;SDS011;24531;45.502;12.238;2023-11-21T14:10:28;4.47;;;1.40;;
38783;SDS011;24531;45.502;12.238;2023-11-21T14:13:02;3.03;;;1.27;;
38783;SDS011;24531;45.502;12.238;2023-11-21T14:15:29;2.67;;;1.33;;
38783;SDS011;24531;45.502;12.238;2023-11-21T14:17:56;3.20;;;1.17;;
38783;SDS011;24531;45.502;12.238;2023-11-21T14:20:22;2.65;;;1.48;;
38783;SDS011;24531;45.502;12.238;2023-11-21T14:22:47;2.63;;;1.38;;
38783;SDS011;24531;45.502;12.238;2023-11-21T14:25:13;1.67;;;1.02;;
38783;SDS011;24531;45.502;12.238;2023-11-21T14:27:39;4.88;;;1.25;;
38783;SDS011;24531;45.502;12.238;2023-11-21T14:30:05;2.00;;;1.20;;
38783;SDS011;24531;45.502;12.238;2023-11-21T14:32:31;2.65;;;1.30;;
38783;SDS011;24531;45.502;12.238;2023-11-21T14:34:57;2.72;;;1.50;;
38783;SDS011;24531;45.502;12.238;2023-11-21T14:37:22;1.95;;;0.82;;
38783;SDS011;24531;45.502;12.238;2023-11-21T14:39:49;3.72;;;1.10;;
38783;SDS011;24531;45.502;12.238;2023-11-21T14:42:15;2.08;;;1.00;;